CheckWX is a tool to help pilots better visualize weather data.  It is not intended as a substitute for an official pre-flight weather briefing.

12:03:14 UTC

EGLL TAF
London Heathrow Airport
London, United Kingdom
TAF EGLL 201101Z 2012/2118 26008KT 9999 SCT035 BECMG 2109/2112 20010KT

Aug-20@
12:00 UTC

Aug-20 @ 12:00 UTC

Aug-21@
09:00 UTC

Aug-21 @ 09:00 UTC

TAF EGLL 201101Z 2012/2118 26008KT 9999 SCT035
Wind
  • 260° at 8 KTS
Cloud Levels
  • Scattered at 3,500' AGL

Aug-21@
09:00 UTC

Aug-21 @ 09:00 UTC

Aug-21@
18:00 UTC

Aug-21 @ 18:00 UTC

BECMG 2109/2112 20010KT

Becoming

Becoming Conditions expected by Wed, Aug 21, 2019 @ 12:00 UTC

Wind
  • 200° at 10 KTS
Cloud Levels
  • Scattered at 3,500' AGL